GWI33CL LOWW-LOWI
Flight info
| Callsign | GWI33CL |
|---|---|
| Flight time | 0h 46m |
| Altitude | 30000 |
| Route | SOVIL DCT SITNI DCT BAGSI DCT NANIT NANIT2A |
| Aircraft | A320/M-SDE3FGHIRWY/LB1 |
Departure
| Time | 2026-05-04 17:59 |
|---|---|
| Airport | Vienna International Airport (LOWW) |
Arrival
| Time | 2026-05-04 18:45 |
|---|---|
| Airport | Innsbruck Airport (LOWI) |
| Time | Latitude | Longitude | Altitude | Speed | Heading |
|---|---|---|---|---|---|
| 2026-05-04 17:26 | 48.11764 | 16.56627 | 624 ft | 0 kts | 26° |
| 2026-05-04 17:49 | 48.11754 | 16.56620 | 622 ft | 3 kts | 28° |
| 2026-05-04 17:49 | 48.11736 | 16.56605 | 625 ft | 3 kts | 33° |
| 2026-05-04 17:49 | 48.11720 | 16.56587 | 625 ft | 3 kts | 43° |
| 2026-05-04 17:49 | 48.11707 | 16.56566 | 623 ft | 3 kts | 64° |
| 2026-05-04 17:50 | 48.11702 | 16.56542 | 624 ft | 2 kts | 108° |
| 2026-05-04 17:50 | 48.11705 | 16.56530 | 622 ft | 1 kts | 116° |
| 2026-05-04 17:50 | 48.11705 | 16.56529 | 622 ft | 0 kts | 116° |
| 2026-05-04 17:52 | 48.11688 | 16.56583 | 618 ft | 17 kts | 116° |
| 2026-05-04 17:52 | 48.11609 | 16.56826 | 613 ft | 29 kts | 116° |
| 2026-05-04 17:53 | 48.11519 | 16.57103 | 621 ft | 30 kts | 116° |
| 2026-05-04 17:53 | 48.11434 | 16.57369 | 613 ft | 20 kts | 109° |
| 2026-05-04 17:53 | 48.11519 | 16.57480 | 615 ft | 19 kts | 36° |
| 2026-05-04 17:53 | 48.11607 | 16.57432 | 618 ft | 18 kts | 340° |
| 2026-05-04 17:54 | 48.11762 | 16.57367 | 617 ft | 27 kts | 345° |
| 2026-05-04 17:54 | 48.11945 | 16.57291 | 611 ft | 20 kts | 351° |
| 2026-05-04 17:54 | 48.12004 | 16.57418 | 609 ft | 9 kts | 73° |
| 2026-05-04 17:54 | 48.12008 | 16.57436 | 621 ft | 0 kts | 73° |
| 2026-05-04 17:55 | 48.12004 | 16.57541 | 615 ft | 15 kts | 102° |
| 2026-05-04 17:55 | 48.11996 | 16.57585 | 609 ft | 0 kts | 104° |
| 2026-05-04 17:57 | 48.11996 | 16.57588 | 609 ft | 3 kts | 104° |
| 2026-05-04 17:57 | 48.11972 | 16.57730 | 619 ft | 22 kts | 104° |
| 2026-05-04 17:58 | 48.11908 | 16.57847 | 614 ft | 0 kts | 162° |
| 2026-05-04 17:58 | 48.11909 | 16.57847 | 614 ft | 0 kts | 162° |
| 2026-05-04 17:58 | 48.11824 | 16.57883 | 613 ft | 45 kts | 165° |
| 2026-05-04 17:58 | 48.11276 | 16.58114 | 613 ft | 115 kts | 164° |
| 2026-05-04 17:59 | 48.10316 | 16.58519 | 636 ft | 166 kts | 164° |
| 2026-05-04 17:59 | 48.09197 | 16.59011 | 1222 ft | 170 kts | 164° |
| 2026-05-04 17:59 | 48.06657 | 16.60059 | 2215 ft | 209 kts | 170° |
| 2026-05-04 18:00 | 48.05186 | 16.59804 | 2624 ft | 231 kts | 209° |
| 2026-05-04 18:00 | 48.03941 | 16.58090 | 3106 ft | 253 kts | 232° |
| 2026-05-04 18:00 | 48.02899 | 16.55908 | 3930 ft | 261 kts | 237° |
| 2026-05-04 18:00 | 48.02239 | 16.54398 | 4558 ft | 264 kts | 237° |
| 2026-05-04 18:01 | 48.01237 | 16.52073 | 5490 ft | 268 kts | 237° |
| 2026-05-04 18:01 | 48.00211 | 16.49730 | 6413 ft | 272 kts | 237° |
| 2026-05-04 18:01 | 47.99149 | 16.47376 | 7319 ft | 275 kts | 236° |
| 2026-05-04 18:02 | 47.97922 | 16.41956 | 9047 ft | 283 kts | 269° |
| 2026-05-04 18:02 | 47.98013 | 16.39005 | 9900 ft | 286 kts | 274° |
| 2026-05-04 18:02 | 47.98141 | 16.35974 | 10446 ft | 303 kts | 274° |
| 2026-05-04 18:02 | 47.98276 | 16.32720 | 10815 ft | 323 kts | 273° |
| 2026-05-04 18:03 | 47.98412 | 16.29336 | 11506 ft | 330 kts | 273° |
| 2026-05-04 18:03 | 47.98546 | 16.25896 | 12275 ft | 334 kts | 273° |
| 2026-05-04 18:03 | 47.98679 | 16.22410 | 13027 ft | 338 kts | 273° |
| 2026-05-04 18:03 | 47.98810 | 16.18883 | 13761 ft | 342 kts | 273° |
| 2026-05-04 18:04 | 47.98943 | 16.15311 | 14455 ft | 347 kts | 273° |
| 2026-05-04 18:04 | 47.99085 | 16.11699 | 15151 ft | 351 kts | 274° |
| 2026-05-04 18:04 | 47.99592 | 16.04379 | 16503 ft | 358 kts | 277° |
| 2026-05-04 18:05 | 47.99905 | 16.00680 | 17158 ft | 361 kts | 277° |
| 2026-05-04 18:05 | 48.00224 | 15.96936 | 17767 ft | 365 kts | 277° |
| 2026-05-04 18:05 | 48.00537 | 15.93154 | 18378 ft | 369 kts | 277° |
| 2026-05-04 18:05 | 48.00841 | 15.89328 | 18995 ft | 372 kts | 276° |
| 2026-05-04 18:06 | 48.01428 | 15.81575 | 20169 ft | 379 kts | 276° |
| 2026-05-04 18:06 | 48.01719 | 15.77645 | 20755 ft | 382 kts | 276° |
| 2026-05-04 18:06 | 48.02012 | 15.73680 | 21310 ft | 386 kts | 276° |
| 2026-05-04 18:07 | 48.02310 | 15.69680 | 21878 ft | 389 kts | 276° |
| 2026-05-04 18:07 | 48.02610 | 15.65643 | 22417 ft | 392 kts | 276° |
| 2026-05-04 18:07 | 48.02911 | 15.61578 | 22952 ft | 396 kts | 276° |
| 2026-05-04 18:07 | 48.03214 | 15.57476 | 23474 ft | 399 kts | 276° |
| 2026-05-04 18:08 | 48.03514 | 15.53342 | 23968 ft | 402 kts | 276° |
| 2026-05-04 18:08 | 48.03813 | 15.49172 | 24460 ft | 405 kts | 276° |
| 2026-05-04 18:08 | 48.04110 | 15.44980 | 24920 ft | 408 kts | 276° |
| 2026-05-04 18:08 | 48.04409 | 15.40746 | 25378 ft | 410 kts | 276° |
| 2026-05-04 18:09 | 48.04861 | 15.32190 | 26231 ft | 416 kts | 272° |
| 2026-05-04 18:09 | 48.04967 | 15.23501 | 27069 ft | 420 kts | 270° |
| 2026-05-04 18:10 | 48.04981 | 15.19124 | 27490 ft | 422 kts | 270° |
| 2026-05-04 18:10 | 48.05005 | 15.14742 | 27869 ft | 424 kts | 270° |
| 2026-05-04 18:10 | 48.05046 | 15.10327 | 27987 ft | 425 kts | 271° |
| 2026-05-04 18:10 | 48.05102 | 15.05916 | 28010 ft | 425 kts | 271° |
| 2026-05-04 18:11 | 48.05235 | 14.97097 | 28059 ft | 426 kts | 271° |
| 2026-05-04 18:11 | 48.05302 | 14.92660 | 28451 ft | 428 kts | 271° |
| 2026-05-04 18:11 | 48.05363 | 14.88200 | 28816 ft | 430 kts | 271° |
| 2026-05-04 18:12 | 48.05419 | 14.83719 | 29164 ft | 432 kts | 271° |
| 2026-05-04 18:12 | 48.05470 | 14.79215 | 29501 ft | 435 kts | 271° |
| 2026-05-04 18:12 | 48.05512 | 14.74691 | 29820 ft | 437 kts | 271° |
| 2026-05-04 18:12 | 48.05548 | 14.70142 | 29981 ft | 438 kts | 270° |
| 2026-05-04 18:13 | 48.05612 | 14.61043 | 30020 ft | 438 kts | 270° |
| 2026-05-04 18:14 | 48.05703 | 14.47455 | 30005 ft | 438 kts | 270° |
| 2026-05-04 18:14 | 48.05748 | 14.38359 | 30008 ft | 438 kts | 270° |
| 2026-05-04 18:15 | 48.05386 | 14.29301 | 30001 ft | 437 kts | 257° |
| 2026-05-04 18:15 | 48.03126 | 14.20904 | 29998 ft | 437 kts | 244° |
| 2026-05-04 18:16 | 48.00425 | 14.12769 | 29995 ft | 437 kts | 244° |
| 2026-05-04 18:16 | 47.97720 | 14.04633 | 29992 ft | 437 kts | 244° |
| 2026-05-04 18:17 | 47.93639 | 13.92382 | 29991 ft | 438 kts | 244° |
| 2026-05-04 18:18 | 47.89638 | 13.80442 | 30010 ft | 415 kts | 243° |
| 2026-05-04 18:18 | 47.87091 | 13.72854 | 30002 ft | 408 kts | 243° |
| 2026-05-04 18:19 | 47.83270 | 13.61544 | 30001 ft | 408 kts | 243° |
| 2026-05-04 18:19 | 47.80705 | 13.53973 | 30009 ft | 409 kts | 243° |
| 2026-05-04 18:20 | 47.78155 | 13.46454 | 30001 ft | 407 kts | 243° |
| 2026-05-04 18:20 | 47.75618 | 13.38981 | 29687 ft | 400 kts | 243° |
| 2026-05-04 18:21 | 47.74369 | 13.35317 | 29283 ft | 396 kts | 243° |
| 2026-05-04 18:21 | 47.73123 | 13.31679 | 28796 ft | 394 kts | 243° |
| 2026-05-04 18:21 | 47.71883 | 13.28071 | 28363 ft | 391 kts | 243° |
| 2026-05-04 18:21 | 47.70653 | 13.24494 | 27914 ft | 388 kts | 243° |
| 2026-05-04 18:22 | 47.69432 | 13.20939 | 27487 ft | 385 kts | 243° |
| 2026-05-04 18:22 | 47.68221 | 13.17406 | 27036 ft | 382 kts | 243° |
| 2026-05-04 18:22 | 47.67020 | 13.13908 | 26643 ft | 378 kts | 243° |
| 2026-05-04 18:22 | 47.65830 | 13.10450 | 26231 ft | 375 kts | 243° |
| 2026-05-04 18:23 | 47.64645 | 13.07024 | 25750 ft | 373 kts | 243° |
| 2026-05-04 18:23 | 47.63463 | 13.03612 | 25308 ft | 370 kts | 243° |
| 2026-05-04 18:23 | 47.62289 | 13.00225 | 24872 ft | 368 kts | 243° |
| 2026-05-04 18:23 | 47.61126 | 12.96873 | 24433 ft | 364 kts | 243° |
| 2026-05-04 18:24 | 47.59972 | 12.93545 | 23977 ft | 362 kts | 243° |
| 2026-05-04 18:24 | 47.58824 | 12.90240 | 23517 ft | 360 kts | 243° |
| 2026-05-04 18:24 | 47.57682 | 12.86952 | 23021 ft | 359 kts | 243° |
| 2026-05-04 18:24 | 47.56538 | 12.83660 | 22514 ft | 359 kts | 243° |
| 2026-05-04 18:25 | 47.55408 | 12.80414 | 22346 ft | 349 kts | 243° |
| 2026-05-04 18:25 | 47.54314 | 12.77273 | 22203 ft | 338 kts | 243° |
| 2026-05-04 18:25 | 47.53253 | 12.74234 | 22085 ft | 327 kts | 243° |
| 2026-05-04 18:25 | 47.52226 | 12.71296 | 21956 ft | 317 kts | 243° |
| 2026-05-04 18:26 | 47.51225 | 12.68439 | 21757 ft | 309 kts | 243° |
| 2026-05-04 18:26 | 47.50238 | 12.65627 | 21402 ft | 308 kts | 243° |
| 2026-05-04 18:26 | 47.49252 | 12.62828 | 21041 ft | 306 kts | 243° |
| 2026-05-04 18:26 | 47.48273 | 12.60045 | 20725 ft | 304 kts | 243° |
| 2026-05-04 18:27 | 47.47305 | 12.57285 | 20387 ft | 302 kts | 243° |
| 2026-05-04 18:27 | 47.46340 | 12.54547 | 20088 ft | 299 kts | 243° |
| 2026-05-04 18:27 | 47.45377 | 12.51823 | 19994 ft | 298 kts | 243° |
| 2026-05-04 18:27 | 47.44414 | 12.49099 | 20005 ft | 300 kts | 243° |
| 2026-05-04 18:28 | 47.43448 | 12.46363 | 20008 ft | 301 kts | 243° |
| 2026-05-04 18:28 | 47.42480 | 12.43626 | 19818 ft | 300 kts | 243° |
| 2026-05-04 18:28 | 47.41518 | 12.40911 | 19516 ft | 297 kts | 242° |
| 2026-05-04 18:28 | 47.40567 | 12.38217 | 19161 ft | 296 kts | 244° |
| 2026-05-04 18:29 | 47.39872 | 12.35370 | 18789 ft | 295 kts | 258° |
| 2026-05-04 18:29 | 47.39627 | 12.32375 | 18461 ft | 294 kts | 270° |
| 2026-05-04 18:29 | 47.39803 | 12.29391 | 18172 ft | 291 kts | 278° |
| 2026-05-04 18:29 | 47.40085 | 12.26451 | 17801 ft | 289 kts | 278° |
| 2026-05-04 18:30 | 47.40636 | 12.20589 | 17059 ft | 286 kts | 278° |
| 2026-05-04 18:30 | 47.40906 | 12.17698 | 16721 ft | 283 kts | 278° |
| 2026-05-04 18:30 | 47.41173 | 12.14824 | 16338 ft | 282 kts | 278° |
| 2026-05-04 18:31 | 47.41438 | 12.11962 | 15996 ft | 280 kts | 278° |
| 2026-05-04 18:31 | 47.41700 | 12.09127 | 15637 ft | 278 kts | 278° |
| 2026-05-04 18:31 | 47.41961 | 12.06297 | 15252 ft | 278 kts | 278° |
| 2026-05-04 18:31 | 47.42465 | 12.03570 | 14890 ft | 276 kts | 299° |
| 2026-05-04 18:32 | 47.43718 | 12.01486 | 14574 ft | 272 kts | 327° |
| 2026-05-04 18:32 | 47.45468 | 12.00511 | 14195 ft | 272 kts | 354° |
| 2026-05-04 18:32 | 47.47323 | 12.00869 | 13817 ft | 271 kts | 23° |
| 2026-05-04 18:32 | 47.48831 | 12.02469 | 13469 ft | 269 kts | 51° |
| 2026-05-04 18:33 | 47.49641 | 12.04920 | 13090 ft | 268 kts | 80° |
| 2026-05-04 18:33 | 47.49579 | 12.07642 | 12726 ft | 266 kts | 106° |
| 2026-05-04 18:33 | 47.48732 | 12.10085 | 12351 ft | 265 kts | 131° |
| 2026-05-04 18:33 | 47.47300 | 12.11748 | 11974 ft | 263 kts | 156° |
| 2026-05-04 18:34 | 47.45579 | 12.12390 | 11612 ft | 261 kts | 180° |
| 2026-05-04 18:34 | 47.43808 | 12.11932 | 11240 ft | 259 kts | 204° |
| 2026-05-04 18:34 | 47.42329 | 12.10451 | 10865 ft | 258 kts | 228° |
| 2026-05-04 18:34 | 47.41362 | 12.08248 | 10514 ft | 256 kts | 244° |
| 2026-05-04 18:35 | 47.40558 | 12.05894 | 10132 ft | 257 kts | 243° |
| 2026-05-04 18:35 | 47.39752 | 12.03549 | 9809 ft | 255 kts | 243° |
| 2026-05-04 18:35 | 47.38948 | 12.01219 | 9560 ft | 253 kts | 243° |
| 2026-05-04 18:35 | 47.38146 | 11.98897 | 9540 ft | 255 kts | 243° |
| 2026-05-04 18:36 | 47.37338 | 11.96558 | 9545 ft | 256 kts | 243° |
| 2026-05-04 18:36 | 47.36518 | 11.94195 | 9542 ft | 255 kts | 243° |
| 2026-05-04 18:36 | 47.35707 | 11.91863 | 9544 ft | 257 kts | 243° |
| 2026-05-04 18:36 | 47.34892 | 11.89520 | 9542 ft | 256 kts | 243° |
| 2026-05-04 18:37 | 47.34080 | 11.87190 | 9544 ft | 254 kts | 243° |
| 2026-05-04 18:37 | 47.33307 | 11.84933 | 9534 ft | 239 kts | 246° |
| 2026-05-04 18:37 | 47.32877 | 11.83475 | 9532 ft | 229 kts | 248° |
| 2026-05-04 18:37 | 47.32373 | 11.81317 | 9441 ft | 220 kts | 256° |
| 2026-05-04 18:38 | 47.32046 | 11.79190 | 9172 ft | 207 kts | 258° |
| 2026-05-04 18:38 | 47.31770 | 11.77156 | 8825 ft | 198 kts | 259° |
| 2026-05-04 18:38 | 47.31508 | 11.75207 | 8507 ft | 189 kts | 259° |
| 2026-05-04 18:38 | 47.31263 | 11.73403 | 8205 ft | 174 kts | 259° |
| 2026-05-04 18:39 | 47.31034 | 11.71710 | 7930 ft | 163 kts | 259° |
| 2026-05-04 18:39 | 47.30817 | 11.70114 | 7663 ft | 155 kts | 259° |
| 2026-05-04 18:39 | 47.30608 | 11.68577 | 7409 ft | 152 kts | 259° |
| 2026-05-04 18:39 | 47.30400 | 11.67052 | 7147 ft | 151 kts | 259° |
| 2026-05-04 18:40 | 47.30194 | 11.65539 | 6915 ft | 150 kts | 259° |
| 2026-05-04 18:40 | 47.29989 | 11.64034 | 6659 ft | 149 kts | 259° |
| 2026-05-04 18:40 | 47.29785 | 11.62537 | 6411 ft | 149 kts | 259° |
| 2026-05-04 18:40 | 47.29581 | 11.61048 | 6165 ft | 148 kts | 259° |
| 2026-05-04 18:41 | 47.29378 | 11.59564 | 5919 ft | 147 kts | 259° |
| 2026-05-04 18:41 | 47.29176 | 11.58089 | 5667 ft | 147 kts | 259° |
| 2026-05-04 18:41 | 47.28974 | 11.56613 | 5413 ft | 146 kts | 259° |
| 2026-05-04 18:41 | 47.28772 | 11.55146 | 5194 ft | 146 kts | 258° |
| 2026-05-04 18:42 | 47.28572 | 11.53687 | 4943 ft | 145 kts | 259° |
| 2026-05-04 18:42 | 47.28372 | 11.52231 | 4704 ft | 145 kts | 259° |
| 2026-05-04 18:42 | 47.28172 | 11.50778 | 4463 ft | 144 kts | 258° |
| 2026-05-04 18:42 | 47.27972 | 11.49336 | 4239 ft | 144 kts | 258° |
| 2026-05-04 18:43 | 47.27769 | 11.47896 | 4006 ft | 144 kts | 258° |
| 2026-05-04 18:43 | 47.27564 | 11.46463 | 3762 ft | 143 kts | 259° |
| 2026-05-04 18:43 | 47.27365 | 11.45031 | 3511 ft | 142 kts | 259° |
| 2026-05-04 18:43 | 47.27173 | 11.43606 | 3248 ft | 142 kts | 258° |
| 2026-05-04 18:44 | 47.26957 | 11.42195 | 3000 ft | 141 kts | 255° |
| 2026-05-04 18:44 | 47.26784 | 11.41277 | 2874 ft | 141 kts | 254° |
| 2026-05-04 18:44 | 47.26548 | 11.39385 | 2538 ft | 140 kts | 263° |
| 2026-05-04 18:44 | 47.26397 | 11.37969 | 2277 ft | 140 kts | 262° |
| 2026-05-04 18:45 | 47.26252 | 11.36558 | 2044 ft | 139 kts | 262° |
| 2026-05-04 18:45 | 47.26103 | 11.35165 | 1907 ft | 130 kts | 261° |
| 2026-05-04 18:45 | 47.25994 | 11.34137 | 1894 ft | 61 kts | 261° |
| 2026-05-04 18:45 | 47.25953 | 11.33750 | 1908 ft | 20 kts | 261° |
| 2026-05-04 18:46 | 47.25877 | 11.33748 | 1908 ft | 16 kts | 128° |
| 2026-05-04 18:46 | 47.25859 | 11.33781 | 1907 ft | 7 kts | 128° |
| 2026-05-04 18:46 | 47.25822 | 11.33855 | 1907 ft | 9 kts | 126° |
| 2026-05-04 18:46 | 47.25773 | 11.33995 | 1902 ft | 24 kts | 101° |
| 2026-05-04 18:47 | 47.25791 | 11.34245 | 1907 ft | 25 kts | 80° |
| 2026-05-04 18:47 | 47.25818 | 11.34504 | 1907 ft | 25 kts | 82° |
| 2026-05-04 18:47 | 47.25845 | 11.34747 | 1905 ft | 19 kts | 82° |
| 2026-05-04 18:47 | 47.25840 | 11.34861 | 1901 ft | 7 kts | 146° |
| 2026-05-04 18:48 | 47.25801 | 11.34872 | 1899 ft | 1 kts | 173° |
| 2026-05-04 18:48 | 47.25800 | 11.34872 | 1900 ft | 0 kts | 173° |